createdAt,value
2022-12-17T00:00:44.045Z,54.9
2022-12-17T00:02:00.336Z,55.4
2022-12-17T00:03:16.648Z,55.4
2022-12-17T00:04:32.937Z,56.9
2022-12-17T00:05:49.229Z,56.2
2022-12-17T00:07:05.520Z,55.2
2022-12-17T00:08:21.814Z,55.6
2022-12-17T00:09:37.138Z,54.9
2022-12-17T00:10:53.419Z,56.2
2022-12-17T00:12:09.724Z,54.4
2022-12-17T00:13:26.012Z,55
2022-12-17T00:14:42.311Z,53.9
2022-12-17T00:15:58.608Z,54.3
2022-12-17T00:17:14.913Z,54.2
2022-12-17T00:18:31.194Z,54.7
2022-12-17T00:19:47.509Z,54.7
2022-12-17T00:21:03.797Z,55.7
2022-12-17T00:22:20.093Z,56.4
2022-12-17T00:23:36.382Z,55.7
2022-12-17T00:24:52.680Z,56.5
2022-12-17T00:26:09.103Z,55.5
2022-12-17T00:27:25.389Z,55.3
2022-12-17T00:28:41.690Z,55.1
2022-12-17T00:29:57.975Z,55.8
2022-12-17T00:31:14.269Z,55.4
2022-12-17T00:32:30.569Z,54.8
2022-12-17T00:33:46.871Z,54.7
2022-12-17T00:35:03.154Z,53.6
2022-12-17T00:36:19.443Z,53.4
2022-12-17T00:37:35.766Z,53.9
2022-12-17T00:38:52.045Z,53
2022-12-17T00:40:08.352Z,53.1
2022-12-17T00:41:24.642Z,51.5
2022-12-17T00:42:39.953Z,52.3
2022-12-17T00:45:12.539Z,53.6
2022-12-17T00:46:28.838Z,53.1
2022-12-17T00:47:45.143Z,52.5
2022-12-17T00:49:01.434Z,53.3
2022-12-17T00:50:17.732Z,54.3
2022-12-17T00:51:34.012Z,53.2
2022-12-17T00:52:50.325Z,54.3
2022-12-17T00:54:06.614Z,54.8
2022-12-17T00:55:22.912Z,54.3
2022-12-17T00:56:39.207Z,55.1
2022-12-17T00:57:55.504Z,54.2
2022-12-17T00:59:10.802Z,52.4
2022-12-17T01:00:27.105Z,52.2
2022-12-17T01:01:43.412Z,53.2
2022-12-17T01:02:59.692Z,52.3
2022-12-17T01:04:15.990Z,53.2
2022-12-17T01:05:32.284Z,52.5
2022-12-17T01:06:48.588Z,53
2022-12-17T01:08:04.884Z,53.6
2022-12-17T01:09:21.186Z,52.5
2022-12-17T01:10:37.470Z,51.8
2022-12-17T01:11:53.773Z,54.6
2022-12-17T01:13:10.060Z,55
2022-12-17T01:14:26.352Z,76.9
2022-12-17T01:15:41.679Z,57.6
2022-12-17T01:16:57.964Z,53.4
2022-12-17T01:18:14.272Z,52.4
2022-12-17T01:19:30.560Z,54.6
2022-12-17T01:20:46.850Z,53.4
2022-12-17T01:22:03.125Z,51.8
2022-12-17T01:23:19.453Z,53
2022-12-17T01:24:35.748Z,52.2
2022-12-17T01:25:52.036Z,51.5
2022-12-17T01:27:08.324Z,52.3
2022-12-17T01:28:24.635Z,52.7
2022-12-17T01:29:40.928Z,51.7
2022-12-17T01:30:57.207Z,52.2
2022-12-17T01:32:12.528Z,52.6
2022-12-17T01:33:28.831Z,54.5
2022-12-17T01:34:45.117Z,53.5
2022-12-17T01:36:01.413Z,53.7
2022-12-17T01:38:33.994Z,53.1
2022-12-17T01:39:50.309Z,52.1
2022-12-17T01:41:06.593Z,54.8
2022-12-17T01:42:22.896Z,52.8
2022-12-17T01:43:39.189Z,52.8
2022-12-17T01:44:55.478Z,51.7
2022-12-17T01:46:11.768Z,50.1
2022-12-17T01:47:28.083Z,50.3
2022-12-17T01:48:43.395Z,50.9
2022-12-17T01:49:59.684Z,52.2
2022-12-17T01:51:14.998Z,52.3
2022-12-17T01:52:31.294Z,52.3
2022-12-17T01:53:47.576Z,50.7
2022-12-17T01:55:03.877Z,52.7
2022-12-17T01:56:20.188Z,51.9
2022-12-17T01:58:52.779Z,49.6
2022-12-17T02:00:09.067Z,49.9
2022-12-17T02:01:25.351Z,51.5
2022-12-17T02:02:41.645Z,50.1
2022-12-17T02:03:57.953Z,50.1
2022-12-17T02:05:14.249Z,51.1
2022-12-17T02:06:30.548Z,51.5
2022-12-17T02:07:45.850Z,51.9
2022-12-17T02:09:02.150Z,51.3
2022-12-17T02:10:18.439Z,52.1
2022-12-17T02:11:34.731Z,51.1
2022-12-17T02:12:51.032Z,51.9
2022-12-17T02:14:07.335Z,50.8
2022-12-17T02:15:23.631Z,51.5
2022-12-17T02:16:39.914Z,50
2022-12-17T02:17:56.210Z,49.9
2022-12-17T02:19:12.510Z,51.4
2022-12-17T02:20:28.811Z,49.9
2022-12-17T02:21:45.108Z,50.5
2022-12-17T02:23:01.403Z,49.8
2022-12-17T02:24:16.718Z,50.3
2022-12-17T02:25:33.000Z,49.6
2022-12-17T02:26:49.300Z,49.7
2022-12-17T02:28:05.604Z,50.1
2022-12-17T02:29:21.883Z,49.3
2022-12-17T02:30:38.191Z,48.9
2022-12-17T02:31:54.476Z,49.1
2022-12-17T02:33:10.769Z,49.2
2022-12-17T02:34:27.080Z,50.1
2022-12-17T02:35:43.374Z,49.5
2022-12-17T02:36:59.674Z,50.4
2022-12-17T02:38:15.963Z,50.3
2022-12-17T02:39:32.258Z,49.4
2022-12-17T02:40:47.567Z,49.5
2022-12-17T02:42:03.866Z,49.3
2022-12-17T02:43:20.169Z,48.9
2022-12-17T02:44:36.453Z,50.7
2022-12-17T02:45:52.748Z,49.6
2022-12-17T02:47:09.042Z,49.3
2022-12-17T02:48:25.329Z,50.8
2022-12-17T02:49:41.623Z,50.6
2022-12-17T02:50:57.924Z,49.9
2022-12-17T02:52:14.209Z,49.7
2022-12-17T02:53:30.518Z,49.6
2022-12-17T02:54:46.802Z,49.3
2022-12-17T02:56:03.112Z,50.2
2022-12-17T02:57:18.420Z,50.4
2022-12-17T02:58:34.717Z,49.6
2022-12-17T02:59:51.006Z,48.8
2022-12-17T03:01:07.307Z,49.2
2022-12-17T03:02:23.593Z,49.6
2022-12-17T03:03:39.891Z,49.3
2022-12-17T03:04:56.185Z,50.1
2022-12-17T03:06:12.489Z,49.9
2022-12-17T03:07:28.787Z,50.4
2022-12-17T03:08:45.066Z,50.6
2022-12-17T03:10:01.358Z,50.9
2022-12-17T03:11:17.655Z,49
2022-12-17T03:12:33.961Z,49.9
2022-12-17T03:13:49.263Z,49.9
2022-12-17T03:15:05.556Z,51
2022-12-17T03:16:21.866Z,51.8
2022-12-17T03:17:38.164Z,51.8
2022-12-17T03:18:54.449Z,55.1
2022-12-17T03:20:10.740Z,55.3
2022-12-17T03:21:27.047Z,57.9
2022-12-17T03:22:43.343Z,56.7
2022-12-17T03:23:59.637Z,57
2022-12-17T03:25:15.928Z,55.5
2022-12-17T03:26:32.233Z,55
2022-12-17T03:27:48.522Z,53.7
2022-12-17T03:29:04.811Z,52.9
2022-12-17T03:30:20.136Z,52
2022-12-17T03:31:36.421Z,51.6
2022-12-17T03:32:52.716Z,51.8
2022-12-17T03:34:09.021Z,51.4
2022-12-17T03:35:25.304Z,51.3
2022-12-17T03:36:41.615Z,51.8
2022-12-17T03:37:57.908Z,51
2022-12-17T03:39:14.195Z,51
2022-12-17T03:40:30.487Z,50.3
2022-12-17T03:41:46.777Z,51.7
2022-12-17T03:43:03.090Z,53.9
2022-12-17T03:44:19.369Z,54.7
2022-12-17T03:45:35.669Z,55.5
2022-12-17T03:46:50.976Z,56
2022-12-17T03:48:07.291Z,53.7
2022-12-17T03:49:23.568Z,55.1
2022-12-17T03:50:39.876Z,54.5
2022-12-17T03:51:56.169Z,54.4
2022-12-17T03:53:12.461Z,54.6
2022-12-17T03:54:28.756Z,53.8
2022-12-17T03:55:45.055Z,54.2
2022-12-17T03:57:01.342Z,52.7
2022-12-17T03:58:17.647Z,52
2022-12-17T03:59:33.940Z,51.6
2022-12-17T04:00:50.232Z,51.7
2022-12-17T04:02:06.522Z,51.8
2022-12-17T04:03:21.853Z,52.3
2022-12-17T04:04:38.131Z,54
2022-12-17T04:05:54.433Z,53.8
2022-12-17T04:07:10.738Z,53
2022-12-17T04:08:27.028Z,54.7
2022-12-17T04:09:43.324Z,55.4
2022-12-17T04:10:59.607Z,55
2022-12-17T04:12:15.905Z,54.9
2022-12-17T04:13:32.211Z,55.4
2022-12-17T04:14:48.512Z,55
2022-12-17T04:16:04.787Z,56.3
2022-12-17T04:17:21.083Z,56.9
2022-12-17T04:18:37.391Z,57.3
2022-12-17T04:19:52.710Z,57.6
2022-12-17T04:21:09.000Z,57.6
2022-12-17T04:22:25.300Z,58.2
2022-12-17T04:23:41.590Z,56.6
2022-12-17T04:24:57.889Z,57.9
2022-12-17T04:26:14.172Z,58.5
2022-12-17T04:27:30.475Z,57.5
2022-12-17T04:28:46.777Z,57.3
2022-12-17T04:30:03.059Z,57.7
2022-12-17T04:31:19.357Z,59.4
2022-12-17T04:32:35.648Z,57.6
2022-12-17T04:33:51.950Z,58.1
2022-12-17T04:35:08.236Z,56.5
2022-12-17T04:36:23.559Z,55.9
2022-12-17T04:37:39.849Z,54.3
2022-12-17T04:38:56.143Z,54.2
2022-12-17T04:40:12.448Z,55.1
2022-12-17T04:41:28.747Z,54.8
2022-12-17T04:42:45.032Z,54.6
2022-12-17T04:44:01.341Z,54
2022-12-17T04:45:17.628Z,53.9
2022-12-17T04:46:33.914Z,54.2
2022-12-17T04:47:50.224Z,53.6
2022-12-17T04:49:06.512Z,53.4
2022-12-17T04:50:22.816Z,52.2
2022-12-17T04:51:39.105Z,51.7
2022-12-17T04:52:54.426Z,51.2
2022-12-17T04:54:10.710Z,50.9
2022-12-17T04:55:27.012Z,50.3
2022-12-17T04:56:43.306Z,51.1
2022-12-17T04:57:59.587Z,51.7
2022-12-17T04:59:15.883Z,50.3
2022-12-17T05:00:32.190Z,50
2022-12-17T05:01:48.483Z,50.3
2022-12-17T05:03:04.784Z,51.1
2022-12-17T05:04:21.074Z,50.8
2022-12-17T05:05:37.363Z,51
2022-12-17T05:06:53.666Z,51.8
2022-12-17T05:08:09.956Z,51.6
2022-12-17T05:09:25.262Z,52.4
2022-12-17T05:10:41.577Z,52
2022-12-17T05:11:57.871Z,50.9
2022-12-17T05:13:14.168Z,51.7
2022-12-17T05:14:30.462Z,50.9
2022-12-17T05:15:46.744Z,51.8
2022-12-17T05:17:03.051Z,51.4
2022-12-17T05:18:19.350Z,51.1
2022-12-17T05:19:35.627Z,50.7
2022-12-17T05:20:51.937Z,50.4
2022-12-17T05:22:08.221Z,51
2022-12-17T05:23:24.528Z,50.3
2022-12-17T05:24:40.814Z,50.3
2022-12-17T05:25:56.120Z,50.1
2022-12-17T05:27:12.415Z,50.5
2022-12-17T05:28:28.715Z,50.1
2022-12-17T05:29:45.009Z,50.9
2022-12-17T05:31:01.318Z,51.6
2022-12-17T05:32:17.606Z,50.4
2022-12-17T05:33:33.908Z,51.3
2022-12-17T05:34:50.200Z,51.3
2022-12-17T05:36:06.489Z,52.3
2022-12-17T05:37:22.785Z,51.5
2022-12-17T05:38:39.088Z,50.5
2022-12-17T05:39:55.377Z,50.2
2022-12-17T05:41:11.677Z,48.5
2022-12-17T05:42:26.985Z,48.9
2022-12-17T05:43:43.270Z,48.2
2022-12-17T05:44:59.586Z,48
2022-12-17T05:46:15.871Z,47.6
2022-12-17T05:47:32.166Z,47.4
2022-12-17T05:48:48.464Z,47.6
2022-12-17T05:50:04.767Z,48.7
2022-12-17T05:51:21.042Z,48.5
2022-12-17T05:52:37.339Z,48.4
2022-12-17T05:53:53.635Z,49
2022-12-17T05:55:09.944Z,48.3
2022-12-17T05:56:26.238Z,47
2022-12-17T05:57:42.529Z,48.5
2022-12-17T05:58:57.848Z,50
2022-12-17T06:00:14.126Z,49.7
2022-12-17T06:01:30.438Z,49.1
2022-12-17T06:02:46.736Z,49.2
2022-12-17T06:04:03.020Z,50.9
2022-12-17T06:05:19.319Z,50.7
2022-12-17T06:06:34.631Z,50.6
2022-12-17T06:07:50.927Z,50.7
2022-12-17T06:10:23.510Z,50.7
2022-12-17T06:11:39.820Z,52.1
2022-12-17T06:12:56.120Z,51.8
2022-12-17T06:14:12.395Z,51.5
2022-12-17T06:15:28.697Z,52.8
2022-12-17T06:16:45.003Z,54.7
2022-12-17T06:18:01.300Z,54.8
2022-12-17T06:19:17.594Z,55.5
2022-12-17T06:20:33.877Z,53.6
2022-12-17T06:21:50.177Z,53.5
2022-12-17T06:23:05.490Z,53.1
2022-12-17T06:24:21.780Z,53.8
2022-12-17T06:25:38.086Z,53.1
2022-12-17T06:26:54.386Z,53.1
2022-12-17T06:28:10.673Z,54.2
2022-12-17T06:29:26.961Z,53.4
2022-12-17T06:30:43.270Z,53.9
2022-12-17T06:33:15.861Z,53.2
2022-12-17T06:34:32.086Z,53.5
2022-12-17T06:35:48.385Z,53.6
2022-12-17T06:37:04.650Z,54.1
2022-12-17T06:38:20.886Z,54.3
2022-12-17T06:39:36.207Z,55.3
2022-12-17T06:40:52.445Z,54.8
2022-12-17T06:42:08.685Z,55
2022-12-17T06:43:24.931Z,56.4
2022-12-17T06:44:41.183Z,56.4
2022-12-17T06:45:57.423Z,56.4
2022-12-17T06:47:13.668Z,58.5
2022-12-17T06:48:29.892Z,57.2
2022-12-17T06:49:46.145Z,56.9
2022-12-17T06:51:02.377Z,57.6
2022-12-17T06:52:18.625Z,57.2
2022-12-17T06:53:34.864Z,57.7
2022-12-17T06:56:07.348Z,56.3
2022-12-17T06:57:22.595Z,57.2
2022-12-17T06:58:38.839Z,58.7
2022-12-17T06:59:55.082Z,58.7
2022-12-17T07:01:11.328Z,59
2022-12-17T07:02:27.562Z,57.7
2022-12-17T07:03:43.818Z,58.1
2022-12-17T07:05:00.056Z,57.4
2022-12-17T07:06:16.303Z,58.1
2022-12-17T07:07:32.542Z,56.6
2022-12-17T07:08:48.781Z,58.9
2022-12-17T07:11:21.252Z,55.7
2022-12-17T07:12:37.494Z,56.9
2022-12-17T07:13:52.758Z,56.3
2022-12-17T07:15:09.005Z,56.1
2022-12-17T07:16:25.245Z,55.6
2022-12-17T07:17:41.481Z,56.1
2022-12-17T07:18:57.720Z,57.9
2022-12-17T07:20:13.975Z,56.4
2022-12-17T07:21:30.000Z,55.8
2022-12-17T07:22:46.451Z,55.4
2022-12-17T07:24:02.696Z,54.4
2022-12-17T07:25:18.930Z,54.1
2022-12-17T07:26:35.183Z,53.8
2022-12-17T07:27:51.423Z,53.4
2022-12-17T07:29:07.659Z,52.7
2022-12-17T07:30:22.906Z,52.8
2022-12-17T07:31:39.159Z,53.6
2022-12-17T07:32:55.403Z,53.5
2022-12-17T07:34:11.641Z,52.4
2022-12-17T07:35:27.872Z,51.8
2022-12-17T07:36:44.122Z,52.1
2022-12-17T07:38:00.354Z,53.5
2022-12-17T07:39:16.594Z,54.3
2022-12-17T07:40:32.834Z,52.3
2022-12-17T07:41:49.080Z,52.7
2022-12-17T07:43:05.317Z,52.3
2022-12-17T07:44:21.570Z,52.9
2022-12-17T07:45:37.815Z,51.6
2022-12-17T07:46:53.073Z,50.2
2022-12-17T07:48:09.310Z,50.5
2022-12-17T07:50:41.781Z,50.3
2022-12-17T07:51:58.026Z,49.3
2022-12-17T07:53:14.269Z,49.1
2022-12-17T07:54:30.515Z,49.4
2022-12-17T07:55:46.755Z,50.5
2022-12-17T07:57:02.996Z,49.8
2022-12-17T07:58:19.237Z,49.7
2022-12-17T07:59:35.478Z,50.1
2022-12-17T08:00:51.721Z,49.5
2022-12-17T08:02:07.972Z,49.8
2022-12-17T08:03:23.222Z,50.5
2022-12-17T08:04:39.467Z,51.2
2022-12-17T08:05:55.696Z,51.9
2022-12-17T08:07:11.948Z,51.9
2022-12-17T08:08:28.190Z,52
2022-12-17T08:09:44.420Z,51.8
2022-12-17T08:11:00.663Z,50.9
2022-12-17T08:12:16.900Z,51.6
2022-12-17T08:13:33.151Z,52
2022-12-17T08:14:49.397Z,50.8
2022-12-17T08:16:05.644Z,51.6
2022-12-17T08:17:21.875Z,50.6
2022-12-17T08:19:54.367Z,50.8
2022-12-17T08:21:09.604Z,49.4
2022-12-17T08:22:25.846Z,48.1
2022-12-17T08:23:42.000Z,48.6
2022-12-17T08:24:58.340Z,47.9
2022-12-17T08:26:14.591Z,47.2
2022-12-17T08:27:30.828Z,48.9
2022-12-17T08:28:47.056Z,47.4
2022-12-17T08:30:03.303Z,48.3
2022-12-17T08:31:19.551Z,49.8
2022-12-17T08:32:34.809Z,49.4
2022-12-17T08:33:50.065Z,49
2022-12-17T08:35:06.304Z,48.9
2022-12-17T08:36:22.557Z,49.7
2022-12-17T08:37:38.788Z,49.3
2022-12-17T08:38:55.021Z,48.7
2022-12-17T08:40:11.281Z,49.3
2022-12-17T08:41:27.522Z,47.3
2022-12-17T08:42:43.763Z,48.8
2022-12-17T08:44:00.005Z,49.7
2022-12-17T08:45:16.000Z,50
2022-12-17T08:46:32.479Z,50.2
2022-12-17T08:47:47.745Z,48.4
2022-12-17T08:49:02.999Z,47.4
2022-12-17T08:50:19.248Z,49.2
2022-12-17T08:51:35.487Z,49.1
2022-12-17T08:52:51.718Z,48.2
2022-12-17T08:54:07.970Z,49.8
2022-12-17T08:55:24.210Z,49
2022-12-17T08:56:40.443Z,49.8
2022-12-17T08:57:56.692Z,49.1
2022-12-17T08:59:12.933Z,49.3
2022-12-17T09:00:29.160Z,48.6
2022-12-17T09:01:45.414Z,49
2022-12-17T09:03:01.646Z,48.7
2022-12-17T09:04:17.887Z,50.7
2022-12-17T09:05:33.139Z,49.8
2022-12-17T09:06:49.382Z,50.7
2022-12-17T09:08:05.636Z,48.5
2022-12-17T09:09:21.871Z,49.2
2022-12-17T09:10:38.117Z,47.3
2022-12-17T09:13:10.589Z,48.7
2022-12-17T09:14:26.839Z,47.5
2022-12-17T09:15:43.086Z,48.2
2022-12-17T09:16:59.316Z,47.2
2022-12-17T09:18:15.550Z,46.6
2022-12-17T09:20:48.040Z,46.8
2022-12-17T09:22:03.292Z,46.8
2022-12-17T09:23:19.532Z,46.7
2022-12-17T09:24:35.786Z,47.6
2022-12-17T09:25:52.033Z,48.2
2022-12-17T09:27:08.255Z,48.5
2022-12-17T09:28:24.505Z,47.7
2022-12-17T09:29:40.756Z,49.2
2022-12-17T09:30:56.995Z,48.7
2022-12-17T09:32:13.224Z,50.1
2022-12-17T09:33:29.467Z,48.1
2022-12-17T09:34:45.708Z,49
2022-12-17T09:36:01.944Z,46.3
2022-12-17T09:37:18.189Z,45.8
2022-12-17T09:38:33.444Z,47.2
2022-12-17T09:39:49.686Z,46.4
2022-12-17T09:41:05.942Z,47.4
2022-12-17T09:43:38.422Z,48.4
2022-12-17T09:44:54.651Z,47.8
2022-12-17T09:46:10.897Z,47.7
2022-12-17T09:47:27.131Z,47.9
2022-12-17T09:48:43.378Z,48.7
2022-12-17T09:49:59.619Z,47.4
2022-12-17T09:51:15.873Z,48.3
2022-12-17T09:52:32.105Z,46.9
2022-12-17T09:53:48.345Z,46.5
2022-12-17T09:55:04.000Z,45.8
2022-12-17T09:56:20.938Z,45.8
2022-12-17T09:57:37.182Z,44.3
2022-12-17T09:58:53.426Z,44.6
2022-12-17T10:00:09.670Z,42.9
2022-12-17T10:01:25.918Z,42.7
2022-12-17T10:02:42.147Z,41.9
2022-12-17T10:03:58.401Z,41.8
2022-12-17T10:05:14.626Z,41.5
2022-12-17T10:06:30.883Z,43.3
2022-12-17T10:07:47.116Z,42.2
2022-12-17T10:09:03.352Z,42.4
2022-12-17T10:10:19.601Z,40.9
2022-12-17T10:12:51.105Z,38.7
2022-12-17T10:14:07.333Z,39.2
2022-12-17T10:15:23.578Z,40
2022-12-17T10:16:39.818Z,43.4
2022-12-17T10:17:56.071Z,43.5
2022-12-17T10:19:12.312Z,44.4
2022-12-17T10:21:44.781Z,42.7
2022-12-17T10:24:16.286Z,40.8
2022-12-17T10:25:32.681Z,42.2
2022-12-17T10:26:47.931Z,40.5
2022-12-17T10:29:20.419Z,39.6
2022-12-17T10:30:36.659Z,40.2
2022-12-17T10:31:52.908Z,40.5
2022-12-17T10:33:09.139Z,40.3
2022-12-17T10:34:25.387Z,40.2
2022-12-17T10:35:41.631Z,40.3
2022-12-17T10:36:57.857Z,41.3
2022-12-17T10:38:14.116Z,41
2022-12-17T10:39:30.355Z,42.1
2022-12-17T10:40:46.587Z,40.3
2022-12-17T10:42:02.823Z,41
2022-12-17T10:43:18.091Z,41.5
2022-12-17T10:44:34.333Z,41.6
2022-12-17T10:45:50.570Z,40.6
2022-12-17T10:47:06.806Z,38.8
2022-12-17T10:48:23.054Z,39.6
2022-12-17T10:49:39.286Z,40.5
2022-12-17T10:50:55.534Z,41.3
2022-12-17T10:52:11.774Z,40.8
2022-12-17T10:53:27.046Z,40.2
2022-12-17T10:54:42.298Z,40.9
2022-12-17T10:55:58.543Z,41.9
2022-12-17T10:57:14.771Z,43
2022-12-17T10:58:31.019Z,46.4
2022-12-17T10:59:47.263Z,46.9
2022-12-17T11:01:03.495Z,47.2
2022-12-17T11:02:19.737Z,39.4
2022-12-17T11:04:52.224Z,39.2
2022-12-17T11:06:08.457Z,37
2022-12-17T11:07:24.716Z,37.5
2022-12-17T11:08:40.946Z,38.3
2022-12-17T11:09:57.193Z,38.9
2022-12-17T11:11:12.447Z,38.4
2022-12-17T11:12:28.689Z,38.6
2022-12-17T11:15:01.172Z,39.8
2022-12-17T11:16:16.433Z,40.5
2022-12-17T11:17:31.692Z,39.9
2022-12-17T11:18:47.937Z,39.4
2022-12-17T11:20:04.175Z,39.7
2022-12-17T11:21:20.419Z,39.8
2022-12-17T11:22:36.662Z,39.8
2022-12-17T11:23:52.885Z,40.3
2022-12-17T11:25:09.138Z,41.2
2022-12-17T11:26:25.383Z,40.2
2022-12-17T11:27:41.619Z,40.1
2022-12-17T11:28:57.860Z,39.4
2022-12-17T11:30:13.111Z,40.2
2022-12-17T11:31:29.483Z,40.7
2022-12-17T11:32:45.732Z,40.7
2022-12-17T11:34:01.959Z,40.4
2022-12-17T11:35:18.204Z,40.3
2022-12-17T11:36:34.454Z,41.8
2022-12-17T11:37:50.685Z,42.5
2022-12-17T11:39:06.936Z,41.8
2022-12-17T11:40:23.166Z,42.5
2022-12-17T11:41:39.407Z,43.8
2022-12-17T11:42:55.643Z,42
2022-12-17T11:44:11.895Z,42.9
2022-12-17T11:45:28.142Z,43.7
2022-12-17T11:46:44.371Z,42.6
2022-12-17T11:47:59.629Z,42.1
2022-12-17T11:49:15.866Z,42.2
2022-12-17T11:50:32.106Z,41.7
2022-12-17T11:51:48.354Z,41.3
2022-12-17T11:53:04.605Z,42.1
2022-12-17T11:54:20.847Z,42.3
2022-12-17T11:55:37.068Z,41.3
2022-12-17T11:56:53.317Z,40.7
2022-12-17T11:58:09.558Z,41.6
2022-12-17T11:59:25.794Z,40.9
2022-12-17T12:00:42.046Z,42.8
2022-12-17T12:01:58.292Z,43.5
2022-12-17T12:03:14.535Z,42.5
2022-12-17T12:04:29.779Z,43
2022-12-17T12:05:46.031Z,42.9
2022-12-17T12:07:02.260Z,41.3
2022-12-17T12:08:18.509Z,41.8
2022-12-17T12:09:34.740Z,41.7
2022-12-17T12:10:50.985Z,42.3
2022-12-17T12:12:07.220Z,41.8
2022-12-17T12:13:23.476Z,41.6
2022-12-17T12:14:39.709Z,42.8
2022-12-17T12:15:55.946Z,43.2
2022-12-17T12:17:12.202Z,43.7
2022-12-17T12:18:28.427Z,41.4
2022-12-17T12:19:44.670Z,40.5
2022-12-17T12:20:59.940Z,39.9
2022-12-17T12:22:16.168Z,40.6
2022-12-17T12:23:32.416Z,40.8
2022-12-17T12:24:48.667Z,40.3
2022-12-17T12:26:04.890Z,40.3
2022-12-17T12:27:21.136Z,37.6
2022-12-17T12:28:37.372Z,38.6
2022-12-17T12:29:53.625Z,37.8
2022-12-17T12:31:09.863Z,38.1
2022-12-17T12:32:26.105Z,36.6
2022-12-17T12:33:42.347Z,37.4
2022-12-17T12:34:58.575Z,37.3
2022-12-17T12:36:14.826Z,36.7
2022-12-17T12:37:31.180Z,37.4
2022-12-17T12:38:47.437Z,36.5
2022-12-17T12:40:03.660Z,35.6
2022-12-17T12:41:19.911Z,35.3
2022-12-17T12:42:36.161Z,36.7
2022-12-17T12:43:52.391Z,35.3
2022-12-17T12:45:08.638Z,34.6
2022-12-17T12:46:24.884Z,36
2022-12-17T12:47:41.111Z,35.8
2022-12-17T12:48:57.353Z,34.8
2022-12-17T12:50:13.603Z,35.5
2022-12-17T12:51:29.838Z,34.6
2022-12-17T12:52:46.087Z,34.8
2022-12-17T12:54:01.347Z,34.8
2022-12-17T12:55:17.580Z,35.6
2022-12-17T12:56:33.810Z,35.9
2022-12-17T12:59:06.295Z,35.7
2022-12-17T13:01:38.793Z,34.8
2022-12-17T13:02:55.017Z,35.5
2022-12-17T13:04:11.269Z,36.4
2022-12-17T13:05:27.515Z,36.6
2022-12-17T13:06:43.747Z,36.4
2022-12-17T13:07:59.990Z,34.5
2022-12-17T13:09:16.220Z,36.2
2022-12-17T13:10:31.478Z,36.5
2022-12-17T13:11:47.721Z,37.2
2022-12-17T13:13:03.970Z,37
2022-12-17T13:14:20.216Z,34.9
2022-12-17T13:15:36.442Z,32.1
2022-12-17T13:16:52.689Z,34.8
2022-12-17T13:18:08.928Z,35.2
2022-12-17T13:19:25.170Z,36.5
2022-12-17T13:20:41.411Z,36.7
2022-12-17T13:21:57.653Z,36.9
2022-12-17T13:23:13.890Z,36.2
2022-12-17T13:24:30.131Z,36.1
2022-12-17T13:25:46.380Z,35.3
2022-12-17T13:27:01.642Z,36.3
2022-12-17T13:28:17.878Z,36.3
2022-12-17T13:29:34.117Z,35.7
2022-12-17T13:30:50.354Z,35.8
2022-12-17T13:32:06.609Z,35.6
2022-12-17T13:33:22.854Z,34.9
2022-12-17T13:34:39.089Z,34.4
2022-12-17T13:35:55.329Z,34.6
2022-12-17T13:37:11.556Z,35.5
2022-12-17T13:38:27.806Z,34.4
2022-12-17T13:39:44.046Z,37.2
2022-12-17T13:41:00.284Z,34.4
2022-12-17T13:42:16.522Z,34.7
2022-12-17T13:44:48.035Z,31.9
2022-12-17T13:46:04.277Z,32.1
2022-12-17T13:47:20.509Z,37.7
2022-12-17T13:48:36.745Z,42.9
2022-12-17T13:49:52.999Z,33.2
2022-12-17T13:51:09.227Z,35.9
2022-12-17T13:52:25.476Z,38.4
2022-12-17T13:53:41.715Z,35.2
2022-12-17T13:54:57.965Z,34.8
2022-12-17T13:56:14.209Z,34
2022-12-17T13:57:30.445Z,34.1
2022-12-17T13:58:46.684Z,34.5
2022-12-17T14:00:01.929Z,35
2022-12-17T14:01:18.174Z,35.4
2022-12-17T14:02:34.414Z,34.6
2022-12-17T14:03:50.665Z,34.1
2022-12-17T14:05:06.893Z,34.1
2022-12-17T14:06:23.140Z,35.5
2022-12-17T14:07:39.383Z,39.3
2022-12-17T14:08:55.628Z,40.6
2022-12-17T14:10:11.865Z,35.4
2022-12-17T14:11:28.112Z,33.6
2022-12-17T14:12:44.359Z,35.3
2022-12-17T14:14:00.583Z,34.2
2022-12-17T14:15:16.839Z,35
2022-12-17T14:17:49.435Z,39.4
2022-12-17T14:19:05.672Z,38.1
2022-12-17T14:20:21.911Z,35.6
2022-12-17T14:21:38.148Z,37.2
2022-12-17T14:22:54.404Z,35.6
2022-12-17T14:24:10.632Z,35.6
2022-12-17T14:25:26.875Z,35.7
2022-12-17T14:26:43.133Z,38.3
2022-12-17T14:27:59.355Z,38.8
2022-12-17T14:29:15.609Z,38.1
2022-12-17T14:30:31.851Z,33.8
2022-12-17T14:31:48.099Z,32.9
2022-12-17T14:33:03.335Z,33.6
2022-12-17T14:35:35.833Z,38.3
2022-12-17T14:36:52.078Z,40.9
2022-12-17T14:38:08.314Z,36.6
2022-12-17T14:40:40.786Z,35.9
2022-12-17T14:41:56.055Z,36.3
2022-12-17T14:43:11.312Z,37.7
2022-12-17T14:44:27.571Z,38.6
2022-12-17T14:45:43.793Z,39.1
2022-12-17T14:47:00.040Z,46
2022-12-17T14:48:16.282Z,44.8
2022-12-17T14:49:32.529Z,44.1
2022-12-17T14:50:48.772Z,51
2022-12-17T14:52:05.009Z,43.7
2022-12-17T14:53:21.243Z,48.6
2022-12-17T14:55:53.727Z,41.5
2022-12-17T14:57:09.975Z,40.6
2022-12-17T14:58:26.223Z,40.2
2022-12-17T14:59:41.475Z,46.9
2022-12-17T15:00:57.710Z,48.1
2022-12-17T15:02:13.957Z,40.2
2022-12-17T15:03:30.192Z,38.9
2022-12-17T15:04:46.439Z,37.3
2022-12-17T15:06:02.669Z,35.6
2022-12-17T15:07:18.909Z,36.2
2022-12-17T15:08:35.164Z,38.2
2022-12-17T15:09:50.434Z,36.9
2022-12-17T15:11:05.673Z,38.9
2022-12-17T15:12:21.924Z,36.9
2022-12-17T15:13:38.169Z,37.6
2022-12-17T15:14:54.404Z,37
2022-12-17T15:16:10.636Z,37.2
2022-12-17T15:17:26.878Z,38.6
2022-12-17T15:18:43.129Z,38
2022-12-17T15:19:59.371Z,36.9
2022-12-17T15:21:15.611Z,36.4
2022-12-17T15:22:31.851Z,38.7
2022-12-17T15:23:48.091Z,39.4
2022-12-17T15:25:04.343Z,39
2022-12-17T15:26:20.581Z,38.8
2022-12-17T15:27:35.832Z,40.8
2022-12-17T15:28:52.122Z,39.3
2022-12-17T15:30:08.369Z,40.5
2022-12-17T15:31:24.604Z,39.9
2022-12-17T15:32:40.841Z,40.9
2022-12-17T15:33:57.140Z,40.2
2022-12-17T15:35:13.395Z,41.9
2022-12-17T15:36:29.629Z,38.2
2022-12-17T15:37:45.873Z,36.9
2022-12-17T15:39:02.170Z,37.7
2022-12-17T15:40:18.452Z,36.7
2022-12-17T15:41:34.762Z,38.3
2022-12-17T15:42:51.045Z,36.7
2022-12-17T15:44:06.357Z,35.8
2022-12-17T15:45:22.653Z,34.1
2022-12-17T15:46:38.960Z,35.5
2022-12-17T15:49:11.553Z,36.3
2022-12-17T15:50:27.831Z,35.4
2022-12-17T15:51:44.131Z,35.1
2022-12-17T15:53:00.426Z,35.2
2022-12-17T15:54:16.727Z,36.7
2022-12-17T15:55:33.018Z,36.5
2022-12-17T15:56:49.318Z,35.2
2022-12-17T15:58:05.601Z,34.5
2022-12-17T15:59:21.899Z,35.8
2022-12-17T16:00:37.000Z,35.4
2022-12-17T16:01:53.515Z,35.2
2022-12-17T16:03:09.801Z,36.1
2022-12-17T16:04:26.098Z,38.1
2022-12-17T16:05:42.398Z,35.8
2022-12-17T16:06:58.680Z,36.2
2022-12-17T16:08:14.980Z,37.6
2022-12-17T16:09:31.291Z,42.7
2022-12-17T16:10:47.586Z,51.3
2022-12-17T16:12:03.878Z,54.9
2022-12-17T16:13:20.156Z,41.1
2022-12-17T16:14:36.452Z,37.2
2022-12-17T16:15:52.755Z,38.4
2022-12-17T16:17:08.072Z,48.7
2022-12-17T16:18:24.369Z,52.5
2022-12-17T16:19:40.651Z,51.2
2022-12-17T16:20:56.950Z,39.3
2022-12-17T16:22:13.258Z,38.6
2022-12-17T16:23:29.542Z,41.4
2022-12-17T16:24:45.836Z,45.5
2022-12-17T16:26:02.144Z,44.1
2022-12-17T16:27:18.426Z,48.7
2022-12-17T16:28:34.726Z,47.3
2022-12-17T16:29:51.015Z,65.4
2022-12-17T16:31:07.305Z,102.5
2022-12-17T16:32:23.609Z,73.2
2022-12-17T16:33:38.921Z,61.2
2022-12-17T16:36:11.509Z,57.7
2022-12-17T16:37:27.800Z,91.5
2022-12-17T16:40:00.398Z,43.8
2022-12-17T16:41:16.698Z,44.2
2022-12-17T16:42:32.985Z,42
2022-12-17T16:43:49.292Z,43.5
2022-12-17T16:45:05.573Z,39.3
2022-12-17T16:46:21.879Z,41.2
2022-12-17T16:47:38.173Z,64.9
2022-12-17T16:48:54.472Z,165
2022-12-17T16:50:09.781Z,88.8
2022-12-17T16:52:42.369Z,43.4
2022-12-17T16:53:57.686Z,41.5
2022-12-17T16:55:12.996Z,44.6
2022-12-17T16:56:29.280Z,47
2022-12-17T16:57:45.575Z,48.4
2022-12-17T16:59:01.878Z,46
2022-12-17T17:00:18.178Z,46.6
2022-12-17T17:01:34.459Z,43.4
2022-12-17T17:02:50.762Z,46
2022-12-17T17:05:23.342Z,42.2
2022-12-17T17:07:55.952Z,38.9
2022-12-17T17:09:12.241Z,39.4
2022-12-17T17:10:27.560Z,40.4
2022-12-17T17:11:42.868Z,46.1
2022-12-17T17:12:59.151Z,44.5
2022-12-17T17:14:15.460Z,42.7
2022-12-17T17:15:31.760Z,42.6
2022-12-17T17:16:48.040Z,42.2
2022-12-17T17:18:04.338Z,42.7
2022-12-17T17:19:20.629Z,43.7
2022-12-17T17:20:36.927Z,43.8
2022-12-17T17:21:53.231Z,43.1
2022-12-17T17:23:09.533Z,44.1
2022-12-17T17:24:24.841Z,42.8
2022-12-17T17:25:40.145Z,42.5
2022-12-17T17:26:56.442Z,43.7
2022-12-17T17:28:12.750Z,44.7
2022-12-17T17:29:29.020Z,43.5
2022-12-17T17:30:45.339Z,42.8
2022-12-17T17:32:01.626Z,43.5
2022-12-17T17:33:17.927Z,41.9
2022-12-17T17:34:34.215Z,43.5
2022-12-17T17:35:50.522Z,43.5
2022-12-17T17:37:06.811Z,44.3
2022-12-17T17:38:22.120Z,54.9